createdAt,value
2017-09-19T00:00:06.176Z,57.20
2017-09-19T00:02:34.260Z,57.30
2017-09-19T00:05:04.080Z,56.80
2017-09-19T00:07:32.933Z,57.10
2017-09-19T00:10:01.009Z,56.90
2017-09-19T00:12:29.139Z,57.10
2017-09-19T00:14:57.221Z,56.90
2017-09-19T00:17:25.300Z,56.50
2017-09-19T00:19:53.372Z,56.30
2017-09-19T00:22:21.469Z,57.10
2017-09-19T00:24:49.560Z,57.30
2017-09-19T00:27:17.642Z,57.30
2017-09-19T00:29:45.715Z,58.10
2017-09-19T00:32:13.791Z,57.20
2017-09-19T00:34:42.726Z,56.70
2017-09-19T00:37:10.811Z,56.70
2017-09-19T00:39:38.891Z,57.20
2017-09-19T00:42:06.973Z,57.40
2017-09-19T00:44:35.072Z,57.80
2017-09-19T00:47:03.139Z,58.50
2017-09-19T00:49:31.216Z,58.50
2017-09-19T00:51:59.284Z,58.50
2017-09-19T00:54:27.364Z,59.10
2017-09-19T00:56:56.208Z,58.60
2017-09-19T00:59:24.295Z,58.50
2017-09-19T01:01:52.373Z,58.80
2017-09-19T01:04:20.464Z,58.50
2017-09-19T01:06:48.535Z,58.40
2017-09-19T01:09:16.617Z,58.40
2017-09-19T01:11:45.465Z,59.40
2017-09-19T01:14:13.549Z,59.40
2017-09-19T01:16:41.648Z,60.00
2017-09-19T01:19:09.731Z,59.40
2017-09-19T01:21:38.571Z,59.70
2017-09-19T01:24:06.662Z,59.70
2017-09-19T01:26:34.731Z,60.10
2017-09-19T01:29:02.815Z,59.80
2017-09-19T01:31:30.887Z,59.60
2017-09-19T01:33:58.975Z,59.60
2017-09-19T01:36:27.048Z,59.50
2017-09-19T01:38:55.212Z,59.90
2017-09-19T01:41:23.280Z,60.40
2017-09-19T01:43:51.364Z,60.90
2017-09-19T01:46:19.440Z,60.80
2017-09-19T01:48:47.516Z,61.80
2017-09-19T01:51:16.376Z,60.30
2017-09-19T01:53:44.465Z,60.30
2017-09-19T01:56:12.545Z,60.60
2017-09-19T01:58:40.627Z,60.30
2017-09-19T02:01:08.704Z,60.10
2017-09-19T02:03:37.559Z,60.30
2017-09-19T02:06:05.684Z,60.30
2017-09-19T02:08:33.781Z,59.80
2017-09-19T02:11:01.852Z,59.90
2017-09-19T02:13:29.927Z,60.00
2017-09-19T02:15:57.995Z,59.80
2017-09-19T02:18:26.852Z,60.90
2017-09-19T02:20:55.700Z,61.00
2017-09-19T02:23:23.788Z,61.00
2017-09-19T02:25:51.880Z,61.80
2017-09-19T02:28:20.736Z,62.30
2017-09-19T02:30:48.815Z,62.30
2017-09-19T02:33:16.895Z,61.10
2017-09-19T02:35:44.972Z,61.10
2017-09-19T02:38:13.080Z,61.50
2017-09-19T02:40:41.182Z,60.10
2017-09-19T02:43:09.263Z,59.60
2017-09-19T02:45:37.377Z,58.80
2017-09-19T02:48:05.465Z,59.30
2017-09-19T02:50:34.307Z,58.70
2017-09-19T02:53:02.392Z,58.60
2017-09-19T02:55:30.459Z,58.90
2017-09-19T02:57:58.553Z,59.60
2017-09-19T03:00:26.640Z,59.70
2017-09-19T03:02:55.480Z,60.10
2017-09-19T03:05:23.577Z,60.00
2017-09-19T03:07:51.652Z,59.70
2017-09-19T03:10:19.735Z,58.80
2017-09-19T03:12:47.809Z,58.70
2017-09-19T03:15:15.882Z,58.70
2017-09-19T03:17:43.942Z,58.70
2017-09-19T03:20:12.022Z,58.70
2017-09-19T03:22:40.088Z,58.80
2017-09-19T03:25:08.168Z,58.80
2017-09-19T03:27:36.248Z,58.80
2017-09-19T03:30:04.328Z,58.80
2017-09-19T03:32:33.176Z,58.80
2017-09-19T03:35:01.252Z,58.80
2017-09-19T03:37:29.356Z,58.80
2017-09-19T03:39:58.228Z,58.70
2017-09-19T03:42:26.299Z,58.60
2017-09-19T03:44:54.382Z,58.90
2017-09-19T03:47:22.463Z,58.80
2017-09-19T03:49:51.325Z,59.30
2017-09-19T03:52:19.395Z,58.80
2017-09-19T03:54:47.484Z,58.80
2017-09-19T03:57:15.557Z,59.70
2017-09-19T03:59:43.640Z,60.70
2017-09-19T04:02:11.711Z,60.50
2017-09-19T04:04:39.791Z,60.30
2017-09-19T04:07:07.865Z,65.60
2017-09-19T04:09:35.943Z,62.50
2017-09-19T04:12:04.796Z,67.40
2017-09-19T04:14:32.879Z,68.50
2017-09-19T04:17:00.959Z,63.50
2017-09-19T04:19:29.039Z,61.20
2017-09-19T04:21:57.117Z,60.00
2017-09-19T04:24:25.975Z,61.10
2017-09-19T04:26:54.047Z,61.00
2017-09-19T04:29:22.142Z,61.00
2017-09-19T04:31:50.224Z,60.80
2017-09-19T04:34:18.307Z,61.50
2017-09-19T04:36:47.139Z,61.40
2017-09-19T04:39:15.232Z,61.40
2017-09-19T04:41:43.305Z,61.90
2017-09-19T04:44:11.387Z,62.50
2017-09-19T04:46:39.462Z,62.00
2017-09-19T04:49:07.535Z,62.10
2017-09-19T04:51:35.620Z,61.10
2017-09-19T04:54:03.696Z,61.40
2017-09-19T04:56:31.767Z,61.40
2017-09-19T04:58:59.876Z,61.00
2017-09-19T05:01:28.749Z,60.40
2017-09-19T05:03:57.591Z,60.60
2017-09-19T05:06:25.664Z,60.50
2017-09-19T05:08:53.752Z,60.70
2017-09-19T05:11:21.827Z,60.50
2017-09-19T05:13:49.917Z,60.70
2017-09-19T05:16:18.772Z,60.40
2017-09-19T05:18:46.863Z,60.30
2017-09-19T05:21:14.931Z,60.00
2017-09-19T05:23:43.022Z,59.80
2017-09-19T05:26:11.860Z,60.50
2017-09-19T05:28:40.868Z,59.40
2017-09-19T05:31:08.972Z,58.50
2017-09-19T05:33:37.047Z,58.00
2017-09-19T05:36:05.130Z,58.00
2017-09-19T05:38:33.972Z,58.00
2017-09-19T05:41:02.084Z,58.00
2017-09-19T05:43:30.164Z,58.10
2017-09-19T05:45:58.239Z,58.10
2017-09-19T05:48:27.083Z,59.10
2017-09-19T05:50:55.164Z,59.10
2017-09-19T05:53:23.240Z,58.00
2017-09-19T05:55:51.322Z,58.10
2017-09-19T05:58:19.399Z,58.10
2017-09-19T06:00:47.490Z,58.80
2017-09-19T06:03:16.334Z,57.20
2017-09-19T06:05:44.429Z,57.20
2017-09-19T06:08:12.495Z,56.90
2017-09-19T06:10:41.356Z,56.80
2017-09-19T06:13:09.432Z,56.70
2017-09-19T06:15:37.532Z,56.80
2017-09-19T06:18:05.616Z,57.00
2017-09-19T06:20:33.715Z,56.30
2017-09-19T06:23:02.563Z,56.40
2017-09-19T06:25:31.850Z,56.50
2017-09-19T06:27:59.927Z,56.40
2017-09-19T06:30:28.012Z,57.30
2017-09-19T06:32:56.091Z,58.10
2017-09-19T06:35:24.176Z,58.10
2017-09-19T06:37:52.256Z,57.70
2017-09-19T06:40:20.336Z,58.10
2017-09-19T06:42:49.192Z,57.30
2017-09-19T06:45:17.283Z,57.30
2017-09-19T06:47:45.360Z,57.10
2017-09-19T06:50:13.451Z,57.10
2017-09-19T06:52:42.291Z,55.40
2017-09-19T06:55:10.376Z,55.40
2017-09-19T06:57:38.447Z,54.50
2017-09-19T07:00:06.539Z,54.50
2017-09-19T07:02:34.607Z,54.60
2017-09-19T07:05:02.692Z,54.30
2017-09-19T07:07:30.767Z,55.10
2017-09-19T07:09:59.627Z,55.70
2017-09-19T07:12:27.709Z,55.10
2017-09-19T07:14:55.792Z,54.60
2017-09-19T07:17:23.882Z,54.40
2017-09-19T07:19:51.964Z,53.80
2017-09-19T07:22:20.809Z,54.10
2017-09-19T07:24:48.911Z,54.00
2017-09-19T07:27:16.980Z,52.70
2017-09-19T07:29:45.064Z,51.50
2017-09-19T07:32:13.920Z,51.90
2017-09-19T07:34:42.015Z,51.90
2017-09-19T07:37:10.089Z,51.20
2017-09-19T07:39:38.169Z,50.70
2017-09-19T07:42:07.015Z,49.70
2017-09-19T07:44:35.199Z,49.70
2017-09-19T07:47:03.275Z,49.50
2017-09-19T07:49:31.365Z,49.40
2017-09-19T07:51:59.435Z,49.40
2017-09-19T07:54:27.533Z,48.20
2017-09-19T07:56:56.380Z,47.70
2017-09-19T07:59:24.459Z,47.60
2017-09-19T08:01:52.557Z,46.40
2017-09-19T08:04:20.626Z,45.40
2017-09-19T08:06:48.708Z,46.60
2017-09-19T08:09:17.556Z,45.70
2017-09-19T08:11:45.651Z,45.60
2017-09-19T08:14:13.733Z,45.00
2017-09-19T08:16:41.819Z,45.70
2017-09-19T08:19:10.672Z,45.70
2017-09-19T08:21:38.773Z,45.70
2017-09-19T08:24:06.848Z,43.60
2017-09-19T08:26:34.933Z,43.20
2017-09-19T08:29:03.774Z,43.20
2017-09-19T08:31:31.852Z,43.20
2017-09-19T08:33:59.924Z,43.20
2017-09-19T08:36:28.013Z,42.90
2017-09-19T08:38:56.084Z,43.20
2017-09-19T08:41:24.180Z,43.10
2017-09-19T08:43:53.036Z,43.90
2017-09-19T08:46:21.126Z,43.90
2017-09-19T08:48:49.194Z,43.80
2017-09-19T08:51:17.294Z,44.40
2017-09-19T08:53:46.148Z,43.50
2017-09-19T08:56:14.240Z,43.40
2017-09-19T08:58:42.311Z,43.20
2017-09-19T09:01:10.404Z,43.20
2017-09-19T09:03:39.261Z,43.40
2017-09-19T09:06:07.348Z,43.30
2017-09-19T09:08:35.428Z,43.00
2017-09-19T09:11:04.289Z,41.20
2017-09-19T09:13:32.381Z,41.10
2017-09-19T09:16:00.469Z,40.50
2017-09-19T09:18:29.328Z,41.10
2017-09-19T09:20:57.417Z,41.10
2017-09-19T09:23:25.501Z,40.90
2017-09-19T09:25:53.580Z,40.20
2017-09-19T09:28:22.422Z,40.60
2017-09-19T09:30:50.507Z,40.50
2017-09-19T09:33:18.645Z,39.50
2017-09-19T09:35:46.745Z,38.50
2017-09-19T09:38:14.815Z,38.40
2017-09-19T09:40:42.896Z,38.40
2017-09-19T09:43:10.988Z,39.00
2017-09-19T09:45:39.076Z,39.90
2017-09-19T09:48:07.147Z,39.90
2017-09-19T09:50:35.222Z,38.50
2017-09-19T09:53:04.101Z,39.90
2017-09-19T09:55:32.178Z,39.80
2017-09-19T09:58:00.251Z,39.20
2017-09-19T10:00:28.332Z,39.20
2017-09-19T10:02:57.180Z,38.50
2017-09-19T10:05:25.271Z,38.50
2017-09-19T10:07:53.352Z,38.80
2017-09-19T10:10:21.453Z,38.90
2017-09-19T10:12:50.294Z,37.80
2017-09-19T10:15:18.389Z,37.80
2017-09-19T10:17:46.451Z,37.40
2017-09-19T10:20:14.530Z,36.80
2017-09-19T10:22:42.599Z,36.20
2017-09-19T10:25:10.700Z,35.90
2017-09-19T10:27:39.539Z,35.30
2017-09-19T10:30:07.630Z,35.30
2017-09-19T10:32:35.695Z,32.30
2017-09-19T10:35:03.764Z,30.60
2017-09-19T10:37:31.839Z,31.80
2017-09-19T10:39:59.922Z,31.10
2017-09-19T10:42:28.008Z,32.60
2017-09-19T10:44:56.071Z,32.30
2017-09-19T10:47:24.147Z,30.90
2017-09-19T10:49:52.216Z,31.40
2017-09-19T10:52:20.303Z,31.30
2017-09-19T10:54:48.363Z,32.20
2017-09-19T10:57:16.449Z,31.60
2017-09-19T10:59:44.519Z,31.80
2017-09-19T11:02:12.610Z,33.30
2017-09-19T11:04:41.450Z,33.00
2017-09-19T11:07:09.527Z,33.00
2017-09-19T11:09:37.607Z,31.10
2017-09-19T11:12:05.673Z,32.80
2017-09-19T11:14:33.782Z,32.40
2017-09-19T11:17:02.621Z,34.80
2017-09-19T11:19:30.709Z,34.00
2017-09-19T11:21:58.780Z,32.70
2017-09-19T11:24:26.867Z,33.20
2017-09-19T11:26:54.943Z,33.20
2017-09-19T11:29:23.029Z,32.80
2017-09-19T11:31:51.091Z,32.80
2017-09-19T11:34:19.528Z,32.30
2017-09-19T11:36:47.604Z,30.80
2017-09-19T11:39:16.440Z,28.80
2017-09-19T11:41:44.519Z,28.80
2017-09-19T11:44:12.589Z,29.60
2017-09-19T11:46:40.670Z,29.00
2017-09-19T11:49:08.738Z,29.10
2017-09-19T11:51:36.815Z,29.70
2017-09-19T11:54:05.655Z,27.80
2017-09-19T11:56:33.753Z,27.80
2017-09-19T11:59:01.826Z,28.00
2017-09-19T12:01:29.899Z,28.00
2017-09-19T12:03:57.975Z,28.10
2017-09-19T12:06:26.043Z,27.90
2017-09-19T12:08:54.121Z,28.00
2017-09-19T12:11:22.188Z,28.00
2017-09-19T12:13:50.247Z,28.10
2017-09-19T12:16:18.324Z,27.30
2017-09-19T12:18:46.387Z,27.40
2017-09-19T12:21:14.462Z,27.40
2017-09-19T12:23:42.541Z,28.40
2017-09-19T12:26:10.627Z,27.60
2017-09-19T12:28:38.777Z,27.60
2017-09-19T12:31:06.849Z,27.70
2017-09-19T12:33:35.700Z,27.00
2017-09-19T12:36:04.539Z,26.80
2017-09-19T12:38:32.623Z,26.80
2017-09-19T12:41:00.692Z,26.40
2017-09-19T12:43:28.755Z,26.00
2017-09-19T12:45:57.825Z,26.10
2017-09-19T12:48:25.897Z,25.80
2017-09-19T12:50:53.971Z,22.40
2017-09-19T12:53:22.042Z,23.20
2017-09-19T12:55:50.127Z,23.70
2017-09-19T12:58:18.235Z,23.80
2017-09-19T13:00:46.619Z,23.80
2017-09-19T13:03:14.908Z,23.50
2017-09-19T13:05:44.495Z,23.50
2017-09-19T13:08:12.571Z,23.40
2017-09-19T13:10:40.651Z,22.30
2017-09-19T13:13:08.724Z,23.10
2017-09-19T13:15:36.795Z,21.70
2017-09-19T13:18:04.868Z,22.20
2017-09-19T13:20:32.939Z,22.50
2017-09-19T13:23:01.015Z,22.70
2017-09-19T13:25:29.083Z,21.20
2017-09-19T13:27:57.160Z,21.50
2017-09-19T13:30:25.219Z,21.20
2017-09-19T13:33:11.140Z,23.30
2017-09-19T13:35:39.985Z,22.80
2017-09-19T13:38:08.057Z,22.80
2017-09-19T13:40:36.128Z,23.30
2017-09-19T13:43:04.199Z,23.80
2017-09-19T13:45:32.296Z,23.00
2017-09-19T13:48:00.379Z,21.00
2017-09-19T13:50:29.223Z,22.60
2017-09-19T13:52:57.285Z,22.60
2017-09-19T13:55:25.364Z,23.70
2017-09-19T13:57:53.430Z,23.90
2017-09-19T14:00:21.511Z,22.50
2017-09-19T14:02:50.444Z,22.90
2017-09-19T14:05:18.524Z,22.90
2017-09-19T14:07:46.593Z,22.90
2017-09-19T14:10:14.663Z,23.80
2017-09-19T14:12:42.735Z,23.00
2017-09-19T14:15:10.807Z,22.80
2017-09-19T14:17:38.872Z,22.60
2017-09-19T14:20:07.036Z,23.60
2017-09-19T14:22:35.103Z,23.50
2017-09-19T14:25:03.180Z,23.50
2017-09-19T14:27:31.262Z,25.00
2017-09-19T14:29:59.331Z,25.50
2017-09-19T14:32:27.436Z,25.30
2017-09-19T14:34:56.279Z,25.70
2017-09-19T14:37:24.358Z,25.50
2017-09-19T14:39:52.431Z,25.30
2017-09-19T14:42:20.935Z,24.80
2017-09-19T14:44:49.104Z,24.30
2017-09-19T14:47:17.290Z,23.40
2017-09-19T14:49:45.360Z,23.30
2017-09-19T14:52:13.432Z,23.50
2017-09-19T14:54:41.504Z,23.60
2017-09-19T14:57:09.589Z,23.90
2017-09-19T14:59:38.431Z,23.30
2017-09-19T15:02:06.512Z,23.30
2017-09-19T15:04:34.593Z,23.00
2017-09-19T15:07:02.671Z,23.40
2017-09-19T15:09:30.766Z,23.10
2017-09-19T15:11:58.880Z,23.70
2017-09-19T15:14:26.952Z,21.00
2017-09-19T15:16:55.043Z,19.70
2017-09-19T15:19:23.119Z,19.60
2017-09-19T15:21:51.188Z,20.30
2017-09-19T15:24:19.263Z,20.90
2017-09-19T15:26:47.336Z,20.90
2017-09-19T15:29:15.415Z,22.10
2017-09-19T15:31:43.483Z,22.80
2017-09-19T15:34:11.567Z,22.10
2017-09-19T15:36:40.445Z,21.90
2017-09-19T15:39:08.584Z,21.90
2017-09-19T15:41:36.656Z,21.80
2017-09-19T15:44:04.747Z,20.60
2017-09-19T15:46:32.817Z,20.90
2017-09-19T15:49:00.945Z,20.80
2017-09-19T15:51:29.803Z,23.00
2017-09-19T15:53:58.704Z,22.90
2017-09-19T15:56:26.785Z,23.80
2017-09-19T15:58:54.843Z,24.10
2017-09-19T16:01:22.926Z,24.30
2017-09-19T16:03:50.998Z,23.70
2017-09-19T16:06:19.136Z,23.70
2017-09-19T16:08:47.212Z,23.70
2017-09-19T16:11:15.288Z,24.20
2017-09-19T16:13:43.395Z,23.70
2017-09-19T16:16:11.488Z,23.90
2017-09-19T16:18:40.334Z,23.60
2017-09-19T16:21:09.164Z,24.10
2017-09-19T16:23:38.020Z,24.10
2017-09-19T16:26:06.119Z,24.10
2017-09-19T16:28:34.249Z,24.40
2017-09-19T16:31:02.329Z,24.80
2017-09-19T16:33:31.172Z,24.00
2017-09-19T16:36:00.020Z,25.00
2017-09-19T16:38:28.152Z,25.10
2017-09-19T16:40:56.974Z,25.00
2017-09-19T16:43:25.056Z,25.00
2017-09-19T16:45:53.133Z,25.30
2017-09-19T16:48:21.228Z,25.20
2017-09-19T16:50:49.300Z,25.70
2017-09-19T16:53:17.381Z,25.40
2017-09-19T16:55:45.444Z,25.70
2017-09-19T16:58:13.527Z,26.10
2017-09-19T17:00:41.695Z,26.30
2017-09-19T17:03:09.772Z,26.50
2017-09-19T17:05:37.873Z,26.60
2017-09-19T17:08:05.924Z,26.80
2017-09-19T17:10:34.768Z,27.20
2017-09-19T17:13:02.850Z,27.20
2017-09-19T17:15:30.920Z,27.20
2017-09-19T17:17:58.996Z,27.10
2017-09-19T17:20:27.059Z,27.30
2017-09-19T17:22:55.144Z,27.50
2017-09-19T17:25:23.203Z,27.70
2017-09-19T17:27:51.280Z,28.00
2017-09-19T17:30:19.357Z,27.60
2017-09-19T17:32:47.437Z,28.20
2017-09-19T17:35:15.497Z,28.40
2017-09-19T17:37:43.604Z,28.00
2017-09-19T17:40:11.641Z,27.70
2017-09-19T17:42:39.716Z,27.80
2017-09-19T17:45:07.801Z,28.00
2017-09-19T17:47:35.872Z,28.60
2017-09-19T17:50:03.936Z,28.20
2017-09-19T17:52:32.009Z,29.00
2017-09-19T17:55:00.080Z,29.00
2017-09-19T17:57:28.206Z,28.60
2017-09-19T17:59:57.038Z,29.40
2017-09-19T18:02:25.124Z,29.30
2017-09-19T18:04:53.188Z,29.40
2017-09-19T18:07:21.269Z,29.90
2017-09-19T18:09:49.336Z,30.00
2017-09-19T18:12:17.420Z,30.10
2017-09-19T18:14:45.506Z,30.50
2017-09-19T18:17:13.595Z,30.70
2017-09-19T18:19:42.444Z,31.00
2017-09-19T18:22:10.517Z,30.90
2017-09-19T18:24:38.611Z,31.20
2017-09-19T18:27:06.690Z,31.70
2017-09-19T18:29:34.768Z,31.60
2017-09-19T18:32:02.834Z,31.50
2017-09-19T18:34:30.920Z,31.90
2017-09-19T18:36:59.763Z,32.10
2017-09-19T18:39:27.852Z,32.00
2017-09-19T18:41:55.928Z,32.10
2017-09-19T18:44:24.013Z,32.50
2017-09-19T18:46:52.085Z,31.80
2017-09-19T18:49:20.171Z,32.30
2017-09-19T18:51:49.015Z,32.00
2017-09-19T18:54:17.109Z,32.00
2017-09-19T18:56:45.192Z,32.40
2017-09-19T18:59:13.274Z,32.50
2017-09-19T19:01:42.115Z,34.10
2017-09-19T19:04:10.202Z,34.10
2017-09-19T19:06:38.295Z,34.10
2017-09-19T19:09:06.415Z,34.40
2017-09-19T19:11:34.503Z,34.60
2017-09-19T19:14:02.593Z,35.40
2017-09-19T19:16:30.672Z,35.50
2017-09-19T19:18:58.755Z,36.30
2017-09-19T19:21:26.838Z,35.80
2017-09-19T19:23:54.915Z,35.90
2017-09-19T19:26:23.759Z,37.00
2017-09-19T19:28:51.845Z,36.30
2017-09-19T19:31:19.916Z,36.30
2017-09-19T19:33:48.037Z,36.40
2017-09-19T19:36:16.881Z,37.10
2017-09-19T19:38:44.972Z,37.00
2017-09-19T19:41:13.057Z,37.30
2017-09-19T19:43:41.141Z,37.40
2017-09-19T19:46:09.991Z,37.40
2017-09-19T19:48:38.087Z,37.40
2017-09-19T19:51:06.239Z,37.40
2017-09-19T19:53:34.340Z,37.80
2017-09-19T19:56:02.434Z,37.50
2017-09-19T19:58:31.281Z,38.50
2017-09-19T20:00:59.368Z,38.50
2017-09-19T20:03:27.509Z,38.20
2017-09-19T20:05:55.571Z,38.40
2017-09-19T20:08:23.662Z,38.50
2017-09-19T20:10:51.740Z,38.20
2017-09-19T20:13:19.856Z,38.90
2017-09-19T20:15:48.722Z,41.30
2017-09-19T20:18:16.799Z,41.20
2017-09-19T20:20:44.876Z,41.30
2017-09-19T20:23:12.960Z,42.70
2017-09-19T20:25:41.072Z,42.30
2017-09-19T20:28:09.155Z,42.20
2017-09-19T20:30:37.262Z,42.60
2017-09-19T20:33:05.348Z,42.50
2017-09-19T20:35:34.196Z,43.60
2017-09-19T20:38:02.297Z,43.50
2017-09-19T20:40:30.376Z,43.70
2017-09-19T20:42:58.447Z,43.60
2017-09-19T20:45:26.548Z,44.00
2017-09-19T20:47:54.672Z,44.20
2017-09-19T20:50:22.760Z,44.10
2017-09-19T20:52:50.867Z,44.40
2017-09-19T20:55:18.956Z,45.80
2017-09-19T20:57:47.048Z,45.60
2017-09-19T21:00:15.141Z,45.80
2017-09-19T21:02:42.637Z,45.90
2017-09-19T21:05:17.201Z,47.00
2017-09-19T21:07:50.814Z,47.00
2017-09-19T21:10:24.467Z,47.50
2017-09-19T21:12:59.035Z,46.90
2017-09-19T21:15:32.609Z,46.60
2017-09-19T21:18:06.135Z,46.60
2017-09-19T21:20:33.632Z,46.80
2017-09-19T21:23:01.720Z,46.70
2017-09-19T21:25:30.804Z,46.90
2017-09-19T21:27:58.983Z,46.80
2017-09-19T21:30:27.117Z,47.20
2017-09-19T21:32:55.196Z,46.80
2017-09-19T21:35:23.288Z,45.90
2017-09-19T21:37:51.368Z,46.40
2017-09-19T21:40:19.457Z,47.20
2017-09-19T21:42:48.304Z,48.00
2017-09-19T21:45:16.409Z,48.00
2017-09-19T21:47:44.492Z,48.50
2017-09-19T21:50:13.341Z,49.50
2017-09-19T21:52:41.412Z,49.50
2017-09-19T21:55:09.518Z,49.80
2017-09-19T21:57:37.592Z,49.70
2017-09-19T22:00:06.455Z,49.70
2017-09-19T22:02:34.542Z,49.10
2017-09-19T22:05:02.623Z,49.60
2017-09-19T22:07:30.700Z,49.60
2017-09-19T22:09:58.785Z,49.70
2017-09-19T22:12:27.626Z,49.60
2017-09-19T22:14:57.052Z,49.60
2017-09-19T22:17:25.235Z,49.60
2017-09-19T22:19:53.312Z,49.00
2017-09-19T22:22:21.392Z,49.40
2017-09-19T22:24:50.250Z,50.10
2017-09-19T22:27:18.329Z,50.00
2017-09-19T22:29:46.415Z,49.60
2017-09-19T22:32:14.496Z,49.50
2017-09-19T22:34:43.372Z,50.60
2017-09-19T22:37:11.457Z,50.60
2017-09-19T22:39:39.541Z,50.50
2017-09-19T22:42:08.392Z,50.80
2017-09-19T22:44:36.883Z,50.60
2017-09-19T22:47:04.952Z,50.10
2017-09-19T22:49:33.037Z,49.60
2017-09-19T22:52:01.116Z,49.60
2017-09-19T22:54:29.207Z,50.10
2017-09-19T22:56:58.044Z,49.50
2017-09-19T22:59:26.136Z,49.50
2017-09-19T23:01:54.208Z,49.50
2017-09-19T23:04:22.300Z,49.10
2017-09-19T23:06:50.380Z,49.10
2017-09-19T23:09:19.237Z,49.50
2017-09-19T23:11:47.360Z,49.40
2017-09-19T23:14:15.453Z,50.30
2017-09-19T23:16:43.532Z,50.80
2017-09-19T23:19:11.612Z,50.60
2017-09-19T23:21:40.456Z,50.60
2017-09-19T23:24:09.324Z,49.60
2017-09-19T23:26:37.409Z,49.50
2017-09-19T23:29:05.494Z,49.50
2017-09-19T23:31:34.349Z,49.60
2017-09-19T23:34:02.436Z,49.40
2017-09-19T23:36:30.516Z,49.30
2017-09-19T23:38:58.605Z,50.50
2017-09-19T23:41:27.461Z,49.90
2017-09-19T23:43:55.557Z,49.90
2017-09-19T23:46:23.636Z,49.30
2017-09-19T23:48:52.481Z,51.20
2017-09-19T23:51:21.323Z,52.00
2017-09-19T23:53:50.160Z,52.60
2017-09-19T23:56:18.243Z,52.60
2017-09-19T23:58:46.320Z,53.20
